sensor_id;sensor_type;location;lat;lon;timestamp;P1;durP1;ratioP1;P2;durP2;ratioP2
4375;SDS011;2202;50.866;12.750;2024-03-07T00:00:08;31.47;;;19.00;;
4375;SDS011;2202;50.866;12.750;2024-03-07T00:02:43;36.60;;;21.43;;
4375;SDS011;2202;50.866;12.750;2024-03-07T00:05:12;31.07;;;21.27;;
4375;SDS011;2202;50.866;12.750;2024-03-07T00:07:39;34.33;;;20.50;;
4375;SDS011;2202;50.866;12.750;2024-03-07T00:10:06;29.10;;;18.67;;
4375;SDS011;2202;50.866;12.750;2024-03-07T00:12:34;32.03;;;21.10;;
4375;SDS011;2202;50.866;12.750;2024-03-07T00:15:04;36.30;;;21.40;;
4375;SDS011;2202;50.866;12.750;2024-03-07T00:17:31;35.00;;;20.07;;
4375;SDS011;2202;50.866;12.750;2024-03-07T00:20:01;32.90;;;22.60;;
4375;SDS011;2202;50.866;12.750;2024-03-07T00:22:29;36.73;;;22.03;;
4375;SDS011;2202;50.866;12.750;2024-03-07T00:24:56;33.77;;;22.63;;
4375;SDS011;2202;50.866;12.750;2024-03-07T00:27:24;32.20;;;20.97;;
4375;SDS011;2202;50.866;12.750;2024-03-07T00:29:51;31.60;;;20.20;;
4375;SDS011;2202;50.866;12.750;2024-03-07T00:32:19;34.83;;;22.57;;
4375;SDS011;2202;50.866;12.750;2024-03-07T00:34:46;35.30;;;22.80;;
4375;SDS011;2202;50.866;12.750;2024-03-07T00:37:15;33.07;;;21.23;;
4375;SDS011;2202;50.866;12.750;2024-03-07T00:39:42;39.00;;;23.67;;
4375;SDS011;2202;50.866;12.750;2024-03-07T00:42:09;37.03;;;20.23;;
4375;SDS011;2202;50.866;12.750;2024-03-07T00:44:37;30.03;;;19.87;;
4375;SDS011;2202;50.866;12.750;2024-03-07T00:47:04;34.17;;;21.50;;
4375;SDS011;2202;50.866;12.750;2024-03-07T00:49:31;30.80;;;20.13;;
4375;SDS011;2202;50.866;12.750;2024-03-07T00:51:58;33.43;;;18.97;;
4375;SDS011;2202;50.866;12.750;2024-03-07T00:54:26;35.73;;;20.40;;
4375;SDS011;2202;50.866;12.750;2024-03-07T00:56:53;32.70;;;20.03;;
4375;SDS011;2202;50.866;12.750;2024-03-07T00:59:20;32.63;;;20.90;;
4375;SDS011;2202;50.866;12.750;2024-03-07T01:01:47;37.13;;;19.60;;
4375;SDS011;2202;50.866;12.750;2024-03-07T01:04:15;30.47;;;19.17;;
4375;SDS011;2202;50.866;12.750;2024-03-07T01:06:42;34.20;;;22.73;;
4375;SDS011;2202;50.866;12.750;2024-03-07T01:09:09;30.07;;;18.80;;
4375;SDS011;2202;50.866;12.750;2024-03-07T01:11:40;27.80;;;19.13;;
4375;SDS011;2202;50.866;12.750;2024-03-07T01:14:08;31.33;;;20.80;;
4375;SDS011;2202;50.866;12.750;2024-03-07T01:16:35;27.00;;;18.70;;
4375;SDS011;2202;50.866;12.750;2024-03-07T01:19:02;32.57;;;19.70;;
4375;SDS011;2202;50.866;12.750;2024-03-07T01:21:31;31.13;;;20.03;;
4375;SDS011;2202;50.866;12.750;2024-03-07T01:23:58;29.97;;;19.23;;
4375;SDS011;2202;50.866;12.750;2024-03-07T01:26:25;27.93;;;19.67;;
4375;SDS011;2202;50.866;12.750;2024-03-07T01:28:54;32.63;;;19.10;;
4375;SDS011;2202;50.866;12.750;2024-03-07T01:31:21;31.43;;;19.27;;
4375;SDS011;2202;50.866;12.750;2024-03-07T01:33:49;25.67;;;17.70;;
4375;SDS011;2202;50.866;12.750;2024-03-07T01:36:16;27.87;;;17.67;;
4375;SDS011;2202;50.866;12.750;2024-03-07T01:38:43;27.90;;;19.13;;
4375;SDS011;2202;50.866;12.750;2024-03-07T01:41:10;31.93;;;20.50;;
4375;SDS011;2202;50.866;12.750;2024-03-07T01:43:37;31.53;;;19.60;;
4375;SDS011;2202;50.866;12.750;2024-03-07T01:46:05;26.40;;;17.20;;
4375;SDS011;2202;50.866;12.750;2024-03-07T01:48:33;33.10;;;20.27;;
4375;SDS011;2202;50.866;12.750;2024-03-07T01:51:00;34.60;;;21.83;;
4375;SDS011;2202;50.866;12.750;2024-03-07T01:53:29;35.83;;;20.03;;
4375;SDS011;2202;50.866;12.750;2024-03-07T01:55:57;30.17;;;20.60;;
4375;SDS011;2202;50.866;12.750;2024-03-07T01:58:25;32.23;;;20.13;;
4375;SDS011;2202;50.866;12.750;2024-03-07T02:00:52;33.70;;;22.17;;
4375;SDS011;2202;50.866;12.750;2024-03-07T02:03:21;37.50;;;24.00;;
4375;SDS011;2202;50.866;12.750;2024-03-07T02:05:48;35.80;;;22.50;;
4375;SDS011;2202;50.866;12.750;2024-03-07T02:08:16;36.10;;;23.30;;
4375;SDS011;2202;50.866;12.750;2024-03-07T02:10:42;44.80;;;25.87;;
4375;SDS011;2202;50.866;12.750;2024-03-07T02:13:09;39.50;;;24.03;;
4375;SDS011;2202;50.866;12.750;2024-03-07T02:15:36;36.57;;;23.30;;
4375;SDS011;2202;50.866;12.750;2024-03-07T02:18:03;45.43;;;25.93;;
4375;SDS011;2202;50.866;12.750;2024-03-07T02:20:31;43.17;;;23.33;;
4375;SDS011;2202;50.866;12.750;2024-03-07T02:23:00;43.93;;;27.00;;
4375;SDS011;2202;50.866;12.750;2024-03-07T02:25:27;45.37;;;24.33;;
4375;SDS011;2202;50.866;12.750;2024-03-07T02:27:55;42.20;;;25.40;;
4375;SDS011;2202;50.866;12.750;2024-03-07T02:30:22;42.30;;;26.27;;
4375;SDS011;2202;50.866;12.750;2024-03-07T02:32:48;49.77;;;25.33;;
4375;SDS011;2202;50.866;12.750;2024-03-07T02:35:19;50.77;;;26.90;;
4375;SDS011;2202;50.866;12.750;2024-03-07T02:37:46;45.17;;;26.07;;
4375;SDS011;2202;50.866;12.750;2024-03-07T02:40:15;43.90;;;26.67;;
4375;SDS011;2202;50.866;12.750;2024-03-07T02:42:42;42.57;;;25.70;;
4375;SDS011;2202;50.866;12.750;2024-03-07T02:45:09;43.37;;;26.93;;
4375;SDS011;2202;50.866;12.750;2024-03-07T02:47:39;48.30;;;26.27;;
4375;SDS011;2202;50.866;12.750;2024-03-07T02:50:07;46.37;;;27.77;;
4375;SDS011;2202;50.866;12.750;2024-03-07T02:52:35;45.33;;;26.57;;
4375;SDS011;2202;50.866;12.750;2024-03-07T02:55:02;47.53;;;26.70;;
4375;SDS011;2202;50.866;12.750;2024-03-07T02:57:31;44.90;;;26.03;;
4375;SDS011;2202;50.866;12.750;2024-03-07T02:59:58;48.67;;;26.80;;
4375;SDS011;2202;50.866;12.750;2024-03-07T03:02:25;43.23;;;25.30;;
4375;SDS011;2202;50.866;12.750;2024-03-07T03:04:52;42.67;;;26.47;;
4375;SDS011;2202;50.866;12.750;2024-03-07T03:07:20;50.87;;;30.17;;
4375;SDS011;2202;50.866;12.750;2024-03-07T03:09:47;54.03;;;30.27;;
4375;SDS011;2202;50.866;12.750;2024-03-07T03:12:14;45.40;;;27.50;;
4375;SDS011;2202;50.866;12.750;2024-03-07T03:14:42;46.37;;;25.63;;
4375;SDS011;2202;50.866;12.750;2024-03-07T03:17:09;44.53;;;27.73;;
4375;SDS011;2202;50.866;12.750;2024-03-07T03:19:36;53.30;;;29.43;;
4375;SDS011;2202;50.866;12.750;2024-03-07T03:22:03;51.47;;;30.03;;
4375;SDS011;2202;50.866;12.750;2024-03-07T03:24:30;46.97;;;27.80;;
4375;SDS011;2202;50.866;12.750;2024-03-07T03:26:57;52.23;;;30.07;;
4375;SDS011;2202;50.866;12.750;2024-03-07T03:29:23;55.03;;;31.17;;
4375;SDS011;2202;50.866;12.750;2024-03-07T03:31:55;55.17;;;30.27;;
4375;SDS011;2202;50.866;12.750;2024-03-07T03:34:22;63.13;;;32.77;;
4375;SDS011;2202;50.866;12.750;2024-03-07T03:36:49;53.73;;;32.57;;
4375;SDS011;2202;50.866;12.750;2024-03-07T03:39:16;50.30;;;28.67;;
4375;SDS011;2202;50.866;12.750;2024-03-07T03:41:45;65.03;;;29.70;;
4375;SDS011;2202;50.866;12.750;2024-03-07T03:44:12;68.27;;;33.03;;
4375;SDS011;2202;50.866;12.750;2024-03-07T03:46:40;62.73;;;32.40;;
4375;SDS011;2202;50.866;12.750;2024-03-07T03:49:09;67.80;;;33.10;;
4375;SDS011;2202;50.866;12.750;2024-03-07T03:51:36;67.10;;;34.23;;
4375;SDS011;2202;50.866;12.750;2024-03-07T03:54:03;62.60;;;32.53;;
4375;SDS011;2202;50.866;12.750;2024-03-07T03:56:30;57.63;;;34.80;;
4375;SDS011;2202;50.866;12.750;2024-03-07T03:58:57;78.73;;;35.57;;
4375;SDS011;2202;50.866;12.750;2024-03-07T04:01:24;72.53;;;33.90;;
4375;SDS011;2202;50.866;12.750;2024-03-07T04:03:51;54.27;;;29.43;;
4375;SDS011;2202;50.866;12.750;2024-03-07T04:06:19;56.93;;;30.90;;
4375;SDS011;2202;50.866;12.750;2024-03-07T04:08:46;60.70;;;31.50;;
4375;SDS011;2202;50.866;12.750;2024-03-07T04:11:13;54.00;;;30.10;;
4375;SDS011;2202;50.866;12.750;2024-03-07T04:13:40;92.57;;;33.10;;
4375;SDS011;2202;50.866;12.750;2024-03-07T04:16:07;89.67;;;31.40;;
4375;SDS011;2202;50.866;12.750;2024-03-07T04:18:34;64.80;;;31.60;;
4375;SDS011;2202;50.866;12.750;2024-03-07T04:21:01;59.20;;;31.80;;
4375;SDS011;2202;50.866;12.750;2024-03-07T04:23:30;92.30;;;31.77;;
4375;SDS011;2202;50.866;12.750;2024-03-07T04:25:57;55.03;;;29.10;;
4375;SDS011;2202;50.866;12.750;2024-03-07T04:28:24;58.20;;;30.30;;
4375;SDS011;2202;50.866;12.750;2024-03-07T04:30:51;49.70;;;28.20;;
4375;SDS011;2202;50.866;12.750;2024-03-07T04:33:18;70.17;;;30.40;;
4375;SDS011;2202;50.866;12.750;2024-03-07T04:35:45;59.63;;;32.70;;
4375;SDS011;2202;50.866;12.750;2024-03-07T04:38:12;54.67;;;29.27;;
4375;SDS011;2202;50.866;12.750;2024-03-07T04:40:41;77.07;;;34.60;;
4375;SDS011;2202;50.866;12.750;2024-03-07T04:43:08;86.37;;;31.57;;
4375;SDS011;2202;50.866;12.750;2024-03-07T04:45:35;79.17;;;31.40;;
4375;SDS011;2202;50.866;12.750;2024-03-07T04:48:02;75.07;;;34.37;;
4375;SDS011;2202;50.866;12.750;2024-03-07T04:50:30;63.77;;;31.40;;
4375;SDS011;2202;50.866;12.750;2024-03-07T04:52:57;67.23;;;31.70;;
4375;SDS011;2202;50.866;12.750;2024-03-07T04:55:23;65.07;;;31.50;;
4375;SDS011;2202;50.866;12.750;2024-03-07T04:57:52;55.67;;;31.00;;
4375;SDS011;2202;50.866;12.750;2024-03-07T05:00:19;58.70;;;32.00;;
4375;SDS011;2202;50.866;12.750;2024-03-07T05:02:49;69.07;;;32.93;;
4375;SDS011;2202;50.866;12.750;2024-03-07T05:05:16;64.97;;;33.20;;
4375;SDS011;2202;50.866;12.750;2024-03-07T05:07:47;55.30;;;31.37;;
4375;SDS011;2202;50.866;12.750;2024-03-07T05:10:15;54.27;;;30.30;;
4375;SDS011;2202;50.866;12.750;2024-03-07T05:12:42;54.27;;;29.93;;
4375;SDS011;2202;50.866;12.750;2024-03-07T05:15:10;54.53;;;30.70;;
4375;SDS011;2202;50.866;12.750;2024-03-07T05:17:37;50.77;;;32.70;;
4375;SDS011;2202;50.866;12.750;2024-03-07T05:20:04;63.00;;;30.70;;
4375;SDS011;2202;50.866;12.750;2024-03-07T05:22:35;57.17;;;30.10;;
4375;SDS011;2202;50.866;12.750;2024-03-07T05:25:04;54.63;;;31.67;;
4375;SDS011;2202;50.866;12.750;2024-03-07T05:27:31;64.60;;;31.80;;
4375;SDS011;2202;50.866;12.750;2024-03-07T05:29:58;55.80;;;31.53;;
4375;SDS011;2202;50.866;12.750;2024-03-07T05:32:27;64.83;;;30.40;;
4375;SDS011;2202;50.866;12.750;2024-03-07T05:34:54;62.20;;;34.03;;
4375;SDS011;2202;50.866;12.750;2024-03-07T05:37:21;57.63;;;33.63;;
4375;SDS011;2202;50.866;12.750;2024-03-07T05:39:48;68.37;;;33.90;;
4375;SDS011;2202;50.866;12.750;2024-03-07T05:42:15;62.27;;;35.80;;
4375;SDS011;2202;50.866;12.750;2024-03-07T05:44:42;70.30;;;37.30;;
4375;SDS011;2202;50.866;12.750;2024-03-07T05:47:10;70.10;;;34.47;;
4375;SDS011;2202;50.866;12.750;2024-03-07T05:49:39;62.93;;;36.03;;
4375;SDS011;2202;50.866;12.750;2024-03-07T05:52:06;74.37;;;38.90;;
4375;SDS011;2202;50.866;12.750;2024-03-07T05:54:33;73.77;;;39.40;;
4375;SDS011;2202;50.866;12.750;2024-03-07T05:57:01;71.07;;;40.53;;
4375;SDS011;2202;50.866;12.750;2024-03-07T05:59:29;88.10;;;41.40;;
4375;SDS011;2202;50.866;12.750;2024-03-07T06:01:56;88.10;;;43.00;;
4375;SDS011;2202;50.866;12.750;2024-03-07T06:04:23;91.73;;;43.20;;
4375;SDS011;2202;50.866;12.750;2024-03-07T06:06:52;82.87;;;41.43;;
4375;SDS011;2202;50.866;12.750;2024-03-07T06:09:19;83.40;;;42.77;;
4375;SDS011;2202;50.866;12.750;2024-03-07T06:11:47;83.10;;;43.40;;
4375;SDS011;2202;50.866;12.750;2024-03-07T06:14:14;82.40;;;41.30;;
4375;SDS011;2202;50.866;12.750;2024-03-07T06:16:42;75.37;;;42.87;;
4375;SDS011;2202;50.866;12.750;2024-03-07T06:19:09;67.80;;;39.90;;
4375;SDS011;2202;50.866;12.750;2024-03-07T06:21:36;69.53;;;39.33;;
4375;SDS011;2202;50.866;12.750;2024-03-07T06:24:07;67.40;;;38.53;;
4375;SDS011;2202;50.866;12.750;2024-03-07T06:26:36;74.13;;;40.40;;
4375;SDS011;2202;50.866;12.750;2024-03-07T06:29:11;66.60;;;37.23;;
4375;SDS011;2202;50.866;12.750;2024-03-07T06:31:38;72.37;;;38.60;;
4375;SDS011;2202;50.866;12.750;2024-03-07T06:34:06;67.63;;;37.73;;
4375;SDS011;2202;50.866;12.750;2024-03-07T06:36:33;66.57;;;37.80;;
4375;SDS011;2202;50.866;12.750;2024-03-07T06:39:00;74.50;;;41.50;;
4375;SDS011;2202;50.866;12.750;2024-03-07T06:41:29;73.40;;;39.10;;
4375;SDS011;2202;50.866;12.750;2024-03-07T06:43:56;60.03;;;37.90;;
4375;SDS011;2202;50.866;12.750;2024-03-07T06:46:23;73.00;;;39.37;;
4375;SDS011;2202;50.866;12.750;2024-03-07T06:48:50;65.93;;;39.63;;
4375;SDS011;2202;50.866;12.750;2024-03-07T06:51:17;73.70;;;38.43;;
4375;SDS011;2202;50.866;12.750;2024-03-07T06:53:44;66.77;;;38.23;;
4375;SDS011;2202;50.866;12.750;2024-03-07T06:56:11;68.90;;;39.80;;
4375;SDS011;2202;50.866;12.750;2024-03-07T06:58:40;63.20;;;37.30;;
4375;SDS011;2202;50.866;12.750;2024-03-07T07:01:07;59.23;;;36.77;;
4375;SDS011;2202;50.866;12.750;2024-03-07T07:03:35;65.93;;;39.00;;
4375;SDS011;2202;50.866;12.750;2024-03-07T07:06:03;63.07;;;36.53;;
4375;SDS011;2202;50.866;12.750;2024-03-07T07:08:31;56.70;;;35.70;;
4375;SDS011;2202;50.866;12.750;2024-03-07T07:10:58;51.83;;;33.30;;
4375;SDS011;2202;50.866;12.750;2024-03-07T07:13:25;59.63;;;36.20;;
4375;SDS011;2202;50.866;12.750;2024-03-07T07:15:53;62.23;;;34.93;;
4375;SDS011;2202;50.866;12.750;2024-03-07T07:18:20;46.90;;;31.50;;
4375;SDS011;2202;50.866;12.750;2024-03-07T07:20:49;53.87;;;32.43;;
4375;SDS011;2202;50.866;12.750;2024-03-07T07:23:17;49.77;;;31.30;;
4375;SDS011;2202;50.866;12.750;2024-03-07T07:25:45;49.67;;;32.53;;
4375;SDS011;2202;50.866;12.750;2024-03-07T07:28:11;50.53;;;31.03;;
4375;SDS011;2202;50.866;12.750;2024-03-07T07:30:38;55.63;;;31.13;;
4375;SDS011;2202;50.866;12.750;2024-03-07T07:33:07;48.30;;;32.07;;
4375;SDS011;2202;50.866;12.750;2024-03-07T07:35:33;43.33;;;30.90;;
4375;SDS011;2202;50.866;12.750;2024-03-07T07:38:00;49.03;;;30.00;;
4375;SDS011;2202;50.866;12.750;2024-03-07T07:40:27;47.03;;;31.40;;
4375;SDS011;2202;50.866;12.750;2024-03-07T07:42:56;55.50;;;32.40;;
4375;SDS011;2202;50.866;12.750;2024-03-07T07:45:23;48.20;;;27.43;;
4375;SDS011;2202;50.866;12.750;2024-03-07T07:47:51;48.20;;;30.50;;
4375;SDS011;2202;50.866;12.750;2024-03-07T07:50:20;41.57;;;29.13;;
4375;SDS011;2202;50.866;12.750;2024-03-07T07:52:48;44.23;;;28.30;;
4375;SDS011;2202;50.866;12.750;2024-03-07T07:55:16;40.57;;;26.90;;
4375;SDS011;2202;50.866;12.750;2024-03-07T07:57:45;44.07;;;30.80;;
4375;SDS011;2202;50.866;12.750;2024-03-07T08:00:13;42.90;;;27.37;;
4375;SDS011;2202;50.866;12.750;2024-03-07T08:02:51;43.77;;;26.53;;
4375;SDS011;2202;50.866;12.750;2024-03-07T08:05:21;41.67;;;28.13;;
4375;SDS011;2202;50.866;12.750;2024-03-07T08:07:49;45.57;;;27.53;;
4375;SDS011;2202;50.866;12.750;2024-03-07T08:10:17;47.20;;;30.53;;
4375;SDS011;2202;50.866;12.750;2024-03-07T08:12:45;53.53;;;32.97;;
4375;SDS011;2202;50.866;12.750;2024-03-07T08:15:13;48.83;;;30.33;;
4375;SDS011;2202;50.866;12.750;2024-03-07T08:17:41;46.63;;;31.70;;
4375;SDS011;2202;50.866;12.750;2024-03-07T08:20:10;54.23;;;30.10;;
4375;SDS011;2202;50.866;12.750;2024-03-07T08:22:39;51.27;;;31.37;;
4375;SDS011;2202;50.866;12.750;2024-03-07T08:25:07;45.27;;;30.17;;
4375;SDS011;2202;50.866;12.750;2024-03-07T08:27:35;48.87;;;30.13;;
4375;SDS011;2202;50.866;12.750;2024-03-07T08:30:03;47.10;;;30.47;;
4375;SDS011;2202;50.866;12.750;2024-03-07T08:32:31;55.13;;;29.93;;
4375;SDS011;2202;50.866;12.750;2024-03-07T08:35:01;42.57;;;29.13;;
4375;SDS011;2202;50.866;12.750;2024-03-07T08:37:31;49.33;;;30.23;;
4375;SDS011;2202;50.866;12.750;2024-03-07T08:40:01;43.93;;;30.30;;
4375;SDS011;2202;50.866;12.750;2024-03-07T08:42:31;44.60;;;28.40;;
4375;SDS011;2202;50.866;12.750;2024-03-07T08:44:59;45.10;;;28.97;;
4375;SDS011;2202;50.866;12.750;2024-03-07T08:47:26;39.73;;;26.80;;
4375;SDS011;2202;50.866;12.750;2024-03-07T08:49:53;41.93;;;27.40;;
4375;SDS011;2202;50.866;12.750;2024-03-07T08:52:20;43.10;;;28.00;;
4375;SDS011;2202;50.866;12.750;2024-03-07T08:54:47;44.87;;;29.77;;
4375;SDS011;2202;50.866;12.750;2024-03-07T08:57:17;54.10;;;28.20;;
4375;SDS011;2202;50.866;12.750;2024-03-07T08:59:44;37.90;;;27.47;;
4375;SDS011;2202;50.866;12.750;2024-03-07T09:02:12;50.63;;;29.37;;
4375;SDS011;2202;50.866;12.750;2024-03-07T09:04:39;42.50;;;28.87;;
4375;SDS011;2202;50.866;12.750;2024-03-07T09:07:06;38.60;;;25.40;;
4375;SDS011;2202;50.866;12.750;2024-03-07T09:09:32;43.73;;;29.10;;
4375;SDS011;2202;50.866;12.750;2024-03-07T09:11:59;41.60;;;28.00;;
4375;SDS011;2202;50.866;12.750;2024-03-07T09:14:29;42.13;;;26.80;;
4375;SDS011;2202;50.866;12.750;2024-03-07T09:16:56;35.57;;;25.73;;
4375;SDS011;2202;50.866;12.750;2024-03-07T09:19:23;40.83;;;24.43;;
4375;SDS011;2202;50.866;12.750;2024-03-07T09:21:50;38.30;;;26.87;;
4375;SDS011;2202;50.866;12.750;2024-03-07T09:24:18;39.80;;;25.03;;
4375;SDS011;2202;50.866;12.750;2024-03-07T09:26:46;35.00;;;22.53;;
4375;SDS011;2202;50.866;12.750;2024-03-07T09:29:14;36.63;;;23.60;;
4375;SDS011;2202;50.866;12.750;2024-03-07T09:31:44;35.07;;;22.20;;
4375;SDS011;2202;50.866;12.750;2024-03-07T09:34:11;37.77;;;23.90;;
4375;SDS011;2202;50.866;12.750;2024-03-07T09:36:39;50.33;;;31.10;;
4375;SDS011;2202;50.866;12.750;2024-03-07T09:39:07;47.30;;;29.17;;
4375;SDS011;2202;50.866;12.750;2024-03-07T09:41:34;41.80;;;27.80;;
4375;SDS011;2202;50.866;12.750;2024-03-07T09:44:01;36.40;;;22.80;;
4375;SDS011;2202;50.866;12.750;2024-03-07T09:46:29;37.10;;;24.70;;
4375;SDS011;2202;50.866;12.750;2024-03-07T09:48:58;32.70;;;21.30;;
4375;SDS011;2202;50.866;12.750;2024-03-07T09:51:27;31.70;;;20.60;;
4375;SDS011;2202;50.866;12.750;2024-03-07T09:53:56;32.70;;;21.97;;
4375;SDS011;2202;50.866;12.750;2024-03-07T09:56:25;30.87;;;20.03;;
4375;SDS011;2202;50.866;12.750;2024-03-07T09:58:56;27.70;;;19.90;;
4375;SDS011;2202;50.866;12.750;2024-03-07T10:01:25;32.60;;;19.80;;
4375;SDS011;2202;50.866;12.750;2024-03-07T10:03:57;28.60;;;20.37;;
4375;SDS011;2202;50.866;12.750;2024-03-07T10:06:30;33.63;;;20.90;;
4375;SDS011;2202;50.866;12.750;2024-03-07T10:08:57;30.23;;;20.27;;
4375;SDS011;2202;50.866;12.750;2024-03-07T10:11:24;37.10;;;19.43;;
4375;SDS011;2202;50.866;12.750;2024-03-07T10:13:52;31.17;;;18.60;;
4375;SDS011;2202;50.866;12.750;2024-03-07T10:16:20;30.90;;;20.20;;
4375;SDS011;2202;50.866;12.750;2024-03-07T10:18:48;30.77;;;19.93;;
4375;SDS011;2202;50.866;12.750;2024-03-07T10:21:18;37.50;;;21.40;;
4375;SDS011;2202;50.866;12.750;2024-03-07T10:23:45;31.33;;;20.13;;
4375;SDS011;2202;50.866;12.750;2024-03-07T10:26:12;29.23;;;20.20;;
4375;SDS011;2202;50.866;12.750;2024-03-07T10:28:39;29.17;;;19.53;;
4375;SDS011;2202;50.866;12.750;2024-03-07T10:31:06;25.93;;;19.90;;
4375;SDS011;2202;50.866;12.750;2024-03-07T10:33:36;25.23;;;17.67;;
4375;SDS011;2202;50.866;12.750;2024-03-07T10:36:04;30.63;;;19.77;;
4375;SDS011;2202;50.866;12.750;2024-03-07T10:38:36;25.90;;;18.10;;
4375;SDS011;2202;50.866;12.750;2024-03-07T10:41:03;29.93;;;19.37;;
4375;SDS011;2202;50.866;12.750;2024-03-07T10:43:33;26.60;;;18.53;;
4375;SDS011;2202;50.866;12.750;2024-03-07T10:46:06;25.00;;;18.30;;
4375;SDS011;2202;50.866;12.750;2024-03-07T10:48:37;23.50;;;17.93;;
4375;SDS011;2202;50.866;12.750;2024-03-07T10:51:06;29.43;;;18.20;;
4375;SDS011;2202;50.866;12.750;2024-03-07T10:53:52;29.40;;;17.50;;
4375;SDS011;2202;50.866;12.750;2024-03-07T10:56:29;26.30;;;18.43;;
4375;SDS011;2202;50.866;12.750;2024-03-07T10:59:07;31.90;;;18.90;;
4375;SDS011;2202;50.866;12.750;2024-03-07T11:01:44;27.53;;;17.30;;
4375;SDS011;2202;50.866;12.750;2024-03-07T11:04:17;24.10;;;17.50;;
4375;SDS011;2202;50.866;12.750;2024-03-07T11:06:46;26.23;;;16.80;;
4375;SDS011;2202;50.866;12.750;2024-03-07T11:09:16;23.53;;;17.83;;
4375;SDS011;2202;50.866;12.750;2024-03-07T11:11:49;22.67;;;16.00;;
4375;SDS011;2202;50.866;12.750;2024-03-07T11:14:16;20.10;;;16.70;;
4375;SDS011;2202;50.866;12.750;2024-03-07T11:16:44;21.40;;;16.17;;
4375;SDS011;2202;50.866;12.750;2024-03-07T11:19:19;22.47;;;15.60;;
4375;SDS011;2202;50.866;12.750;2024-03-07T11:21:47;21.80;;;16.00;;
4375;SDS011;2202;50.866;12.750;2024-03-07T11:24:23;28.63;;;16.47;;
4375;SDS011;2202;50.866;12.750;2024-03-07T11:26:51;27.07;;;17.57;;
4375;SDS011;2202;50.866;12.750;2024-03-07T11:32:17;25.23;;;16.93;;
4375;SDS011;2202;50.866;12.750;2024-03-07T11:34:46;25.43;;;17.73;;
4375;SDS011;2202;50.866;12.750;2024-03-07T11:37:17;24.60;;;17.67;;
4375;SDS011;2202;50.866;12.750;2024-03-07T11:39:49;22.20;;;14.93;;
4375;SDS011;2202;50.866;12.750;2024-03-07T11:42:19;17.87;;;13.60;;
4375;SDS011;2202;50.866;12.750;2024-03-07T11:44:47;22.67;;;16.07;;
4375;SDS011;2202;50.866;12.750;2024-03-07T11:47:16;24.13;;;17.03;;
4375;SDS011;2202;50.866;12.750;2024-03-07T11:49:44;21.80;;;15.60;;
4375;SDS011;2202;50.866;12.750;2024-03-07T11:52:13;26.07;;;16.80;;
4375;SDS011;2202;50.866;12.750;2024-03-07T11:54:41;20.77;;;15.97;;
4375;SDS011;2202;50.866;12.750;2024-03-07T11:57:14;20.97;;;16.17;;
4375;SDS011;2202;50.866;12.750;2024-03-07T11:59:44;27.47;;;15.80;;
4375;SDS011;2202;50.866;12.750;2024-03-07T12:02:12;23.50;;;16.20;;
4375;SDS011;2202;50.866;12.750;2024-03-07T12:04:40;25.77;;;19.23;;
4375;SDS011;2202;50.866;12.750;2024-03-07T12:07:07;23.30;;;14.70;;
4375;SDS011;2202;50.866;12.750;2024-03-07T12:09:35;21.73;;;15.80;;
4375;SDS011;2202;50.866;12.750;2024-03-07T12:12:03;23.97;;;15.53;;
4375;SDS011;2202;50.866;12.750;2024-03-07T12:14:32;22.33;;;16.43;;
4375;SDS011;2202;50.866;12.750;2024-03-07T12:16:59;21.17;;;15.90;;
4375;SDS011;2202;50.866;12.750;2024-03-07T12:19:29;26.23;;;18.90;;
4375;SDS011;2202;50.866;12.750;2024-03-07T12:21:57;24.33;;;17.50;;
4375;SDS011;2202;50.866;12.750;2024-03-07T12:24:27;25.40;;;17.20;;
4375;SDS011;2202;50.866;12.750;2024-03-07T12:27:04;25.17;;;17.33;;
4375;SDS011;2202;50.866;12.750;2024-03-07T12:29:33;27.20;;;19.10;;
4375;SDS011;2202;50.866;12.750;2024-03-07T12:32:02;23.60;;;17.87;;
4375;SDS011;2202;50.866;12.750;2024-03-07T12:34:31;24.23;;;18.13;;
4375;SDS011;2202;50.866;12.750;2024-03-07T12:37:01;27.90;;;19.70;;
4375;SDS011;2202;50.866;12.750;2024-03-07T12:39:31;22.63;;;17.30;;
4375;SDS011;2202;50.866;12.750;2024-03-07T12:42:01;25.67;;;16.10;;
4375;SDS011;2202;50.866;12.750;2024-03-07T12:44:39;24.33;;;15.83;;
4375;SDS011;2202;50.866;12.750;2024-03-07T12:47:08;29.10;;;16.33;;
4375;SDS011;2202;50.866;12.750;2024-03-07T12:49:36;24.80;;;17.80;;
4375;SDS011;2202;50.866;12.750;2024-03-07T12:52:04;27.50;;;17.90;;
4375;SDS011;2202;50.866;12.750;2024-03-07T12:54:32;25.60;;;17.30;;
4375;SDS011;2202;50.866;12.750;2024-03-07T12:56:59;23.17;;;17.03;;
4375;SDS011;2202;50.866;12.750;2024-03-07T12:59:30;21.40;;;15.87;;
4375;SDS011;2202;50.866;12.750;2024-03-07T13:01:58;26.00;;;18.17;;
4375;SDS011;2202;50.866;12.750;2024-03-07T13:04:25;24.90;;;17.40;;
4375;SDS011;2202;50.866;12.750;2024-03-07T13:06:52;29.03;;;18.87;;
4375;SDS011;2202;50.866;12.750;2024-03-07T13:09:19;26.10;;;19.70;;
4375;SDS011;2202;50.866;12.750;2024-03-07T13:11:52;25.03;;;17.70;;
4375;SDS011;2202;50.866;12.750;2024-03-07T13:14:19;23.00;;;17.13;;
4375;SDS011;2202;50.866;12.750;2024-03-07T13:16:45;28.23;;;19.30;;
4375;SDS011;2202;50.866;12.750;2024-03-07T13:19:14;25.03;;;19.10;;
4375;SDS011;2202;50.866;12.750;2024-03-07T13:21:45;27.50;;;20.33;;
4375;SDS011;2202;50.866;12.750;2024-03-07T13:24:13;26.77;;;18.67;;
4375;SDS011;2202;50.866;12.750;2024-03-07T13:26:40;25.90;;;19.40;;
4375;SDS011;2202;50.866;12.750;2024-03-07T13:29:08;25.80;;;18.63;;
4375;SDS011;2202;50.866;12.750;2024-03-07T13:31:35;29.63;;;20.67;;
4375;SDS011;2202;50.866;12.750;2024-03-07T13:34:02;30.10;;;21.33;;
4375;SDS011;2202;50.866;12.750;2024-03-07T13:36:30;29.80;;;21.33;;
4375;SDS011;2202;50.866;12.750;2024-03-07T13:38:57;27.10;;;21.40;;
4375;SDS011;2202;50.866;12.750;2024-03-07T13:41:24;29.23;;;21.20;;
4375;SDS011;2202;50.866;12.750;2024-03-07T13:43:53;27.07;;;21.57;;
4375;SDS011;2202;50.866;12.750;2024-03-07T13:46:20;29.37;;;21.13;;
4375;SDS011;2202;50.866;12.750;2024-03-07T13:48:47;29.47;;;22.77;;
4375;SDS011;2202;50.866;12.750;2024-03-07T13:51:13;32.20;;;24.27;;
4375;SDS011;2202;50.866;12.750;2024-03-07T13:53:43;32.10;;;22.50;;
4375;SDS011;2202;50.866;12.750;2024-03-07T13:59:16;32.20;;;23.33;;
4375;SDS011;2202;50.866;12.750;2024-03-07T14:02:06;36.47;;;25.27;;
4375;SDS011;2202;50.866;12.750;2024-03-07T14:04:47;33.50;;;23.40;;
4375;SDS011;2202;50.866;12.750;2024-03-07T14:07:41;34.40;;;23.30;;
4375;SDS011;2202;50.866;12.750;2024-03-07T14:10:32;36.57;;;24.63;;
4375;SDS011;2202;50.866;12.750;2024-03-07T14:13:35;39.00;;;23.80;;
4375;SDS011;2202;50.866;12.750;2024-03-07T14:19:30;34.03;;;23.30;;
4375;SDS011;2202;50.866;12.750;2024-03-07T14:22:30;41.60;;;23.07;;
4375;SDS011;2202;50.866;12.750;2024-03-07T14:28:13;34.60;;;23.77;;
4375;SDS011;2202;50.866;12.750;2024-03-07T14:30:49;29.03;;;21.87;;
4375;SDS011;2202;50.866;12.750;2024-03-07T14:33:18;31.50;;;21.63;;
4375;SDS011;2202;50.866;12.750;2024-03-07T14:35:58;33.83;;;22.90;;
4375;SDS011;2202;50.866;12.750;2024-03-07T14:38:30;33.00;;;23.23;;
4375;SDS011;2202;50.866;12.750;2024-03-07T14:41:10;33.73;;;23.90;;
4375;SDS011;2202;50.866;12.750;2024-03-07T14:43:41;31.47;;;22.90;;
4375;SDS011;2202;50.866;12.750;2024-03-07T14:46:09;31.30;;;21.90;;
4375;SDS011;2202;50.866;12.750;2024-03-07T14:48:37;32.40;;;23.30;;
4375;SDS011;2202;50.866;12.750;2024-03-07T14:51:05;34.00;;;22.37;;
4375;SDS011;2202;50.866;12.750;2024-03-07T14:53:34;31.37;;;23.23;;